sensor_id;sensor_type;location;lat;lon;timestamp;temperature;humidity
2024;DHT22;1016;48.770;9.154;2022-10-22T00:01:49;16.20;99.90
2024;DHT22;1016;48.770;9.154;2022-10-22T00:04:15;16.20;99.90
2024;DHT22;1016;48.770;9.154;2022-10-22T00:06:41;16.10;99.90
2024;DHT22;1016;48.770;9.154;2022-10-22T00:09:10;16.20;99.90
2024;DHT22;1016;48.770;9.154;2022-10-22T00:11:35;16.20;99.90
2024;DHT22;1016;48.770;9.154;2022-10-22T00:14:01;16.10;99.90
2024;DHT22;1016;48.770;9.154;2022-10-22T00:16:27;16.10;99.90
2024;DHT22;1016;48.770;9.154;2022-10-22T00:18:52;16.00;99.90
2024;DHT22;1016;48.770;9.154;2022-10-22T00:21:18;16.00;99.90
2024;DHT22;1016;48.770;9.154;2022-10-22T00:23:43;16.00;99.90
2024;DHT22;1016;48.770;9.154;2022-10-22T00:26:10;16.00;99.90
2024;DHT22;1016;48.770;9.154;2022-10-22T00:28:35;16.00;99.90
2024;DHT22;1016;48.770;9.154;2022-10-22T00:31:01;16.00;99.90
2024;DHT22;1016;48.770;9.154;2022-10-22T00:33:27;16.00;99.90
2024;DHT22;1016;48.770;9.154;2022-10-22T00:35:53;16.00;99.90
2024;DHT22;1016;48.770;9.154;2022-10-22T00:38:19;16.00;99.90
2024;DHT22;1016;48.770;9.154;2022-10-22T00:40:45;16.00;99.90
2024;DHT22;1016;48.770;9.154;2022-10-22T00:43:13;16.00;99.90
2024;DHT22;1016;48.770;9.154;2022-10-22T00:45:39;16.00;99.90
2024;DHT22;1016;48.770;9.154;2022-10-22T00:48:13;16.00;99.90
2024;DHT22;1016;48.770;9.154;2022-10-22T00:53:22;16.00;99.90
2024;DHT22;1016;48.770;9.154;2022-10-22T00:55:51;16.00;99.90
2024;DHT22;1016;48.770;9.154;2022-10-22T00:58:19;15.90;99.90
2024;DHT22;1016;48.770;9.154;2022-10-22T01:00:47;15.90;99.90
2024;DHT22;1016;48.770;9.154;2022-10-22T01:03:13;15.90;99.90
2024;DHT22;1016;48.770;9.154;2022-10-22T01:05:43;15.90;99.90
2024;DHT22;1016;48.770;9.154;2022-10-22T01:08:17;15.90;99.90
2024;DHT22;1016;48.770;9.154;2022-10-22T01:11:12;15.90;99.90
2024;DHT22;1016;48.770;9.154;2022-10-22T01:13:57;15.80;99.90
2024;DHT22;1016;48.770;9.154;2022-10-22T01:25:24;15.90;99.90
2024;DHT22;1016;48.770;9.154;2022-10-22T01:30:55;15.90;99.90
2024;DHT22;1016;48.770;9.154;2022-10-22T01:33:25;15.90;99.90
2024;DHT22;1016;48.770;9.154;2022-10-22T01:35:52;15.90;99.90
2024;DHT22;1016;48.770;9.154;2022-10-22T01:38:19;15.90;99.90
2024;DHT22;1016;48.770;9.154;2022-10-22T01:40:46;15.90;99.90
2024;DHT22;1016;48.770;9.154;2022-10-22T01:43:13;16.00;99.90
2024;DHT22;1016;48.770;9.154;2022-10-22T01:45:42;16.00;99.90
2024;DHT22;1016;48.770;9.154;2022-10-22T01:51:18;16.00;99.90
2024;DHT22;1016;48.770;9.154;2022-10-22T01:53:54;15.90;99.90
2024;DHT22;1016;48.770;9.154;2022-10-22T01:56:36;15.90;99.90
2024;DHT22;1016;48.770;9.154;2022-10-22T01:59:20;15.90;99.90
2024;DHT22;1016;48.770;9.154;2022-10-22T02:02:03;15.90;99.90
2024;DHT22;1016;48.770;9.154;2022-10-22T02:04:40;15.90;99.90
2024;DHT22;1016;48.770;9.154;2022-10-22T02:07:11;15.90;99.90
2024;DHT22;1016;48.770;9.154;2022-10-22T02:09:39;15.80;99.90
2024;DHT22;1016;48.770;9.154;2022-10-22T02:12:06;15.80;99.90
2024;DHT22;1016;48.770;9.154;2022-10-22T02:14:35;15.90;99.90
2024;DHT22;1016;48.770;9.154;2022-10-22T02:17:01;15.90;99.90
2024;DHT22;1016;48.770;9.154;2022-10-22T02:19:34;15.90;99.90
2024;DHT22;1016;48.770;9.154;2022-10-22T02:22:03;15.90;99.90
2024;DHT22;1016;48.770;9.154;2022-10-22T02:24:28;15.80;99.90
2024;DHT22;1016;48.770;9.154;2022-10-22T02:27:06;15.80;99.90
2024;DHT22;1016;48.770;9.154;2022-10-22T02:29:39;15.80;99.90
2024;DHT22;1016;48.770;9.154;2022-10-22T02:32:08;15.80;99.90
2024;DHT22;1016;48.770;9.154;2022-10-22T02:34:35;15.80;99.90
2024;DHT22;1016;48.770;9.154;2022-10-22T02:37:02;15.90;99.90
2024;DHT22;1016;48.770;9.154;2022-10-22T02:39:29;15.90;99.90
2024;DHT22;1016;48.770;9.154;2022-10-22T02:41:55;15.90;99.90
2024;DHT22;1016;48.770;9.154;2022-10-22T02:44:22;15.80;99.90
2024;DHT22;1016;48.770;9.154;2022-10-22T02:46:49;15.80;99.90
2024;DHT22;1016;48.770;9.154;2022-10-22T02:49:14;15.80;99.90
2024;DHT22;1016;48.770;9.154;2022-10-22T02:51:40;15.80;99.90
2024;DHT22;1016;48.770;9.154;2022-10-22T02:54:06;15.90;99.90
2024;DHT22;1016;48.770;9.154;2022-10-22T02:56:31;15.90;99.90
2024;DHT22;1016;48.770;9.154;2022-10-22T02:58:57;15.90;99.90
2024;DHT22;1016;48.770;9.154;2022-10-22T03:01:22;15.90;99.90
2024;DHT22;1016;48.770;9.154;2022-10-22T03:03:48;15.90;99.90
2024;DHT22;1016;48.770;9.154;2022-10-22T03:06:14;15.90;99.90
2024;DHT22;1016;48.770;9.154;2022-10-22T03:08:40;15.90;99.90
2024;DHT22;1016;48.770;9.154;2022-10-22T03:11:05;15.90;99.90
2024;DHT22;1016;48.770;9.154;2022-10-22T03:13:31;15.90;99.90
2024;DHT22;1016;48.770;9.154;2022-10-22T03:15:56;15.90;99.90
2024;DHT22;1016;48.770;9.154;2022-10-22T03:18:22;15.80;99.90
2024;DHT22;1016;48.770;9.154;2022-10-22T03:20:47;15.90;99.90
2024;DHT22;1016;48.770;9.154;2022-10-22T03:23:14;15.80;99.90
2024;DHT22;1016;48.770;9.154;2022-10-22T03:25:43;15.90;99.90
2024;DHT22;1016;48.770;9.154;2022-10-22T03:28:12;15.80;99.90
2024;DHT22;1016;48.770;9.154;2022-10-22T03:30:39;15.80;99.90
2024;DHT22;1016;48.770;9.154;2022-10-22T03:33:04;15.80;99.90
2024;DHT22;1016;48.770;9.154;2022-10-22T03:35:31;15.80;99.90
2024;DHT22;1016;48.770;9.154;2022-10-22T03:37:59;15.80;99.90
2024;DHT22;1016;48.770;9.154;2022-10-22T03:40:25;15.80;99.90
2024;DHT22;1016;48.770;9.154;2022-10-22T03:42:51;15.80;99.90
2024;DHT22;1016;48.770;9.154;2022-10-22T03:45:17;15.80;99.90
2024;DHT22;1016;48.770;9.154;2022-10-22T03:47:42;15.80;99.90
2024;DHT22;1016;48.770;9.154;2022-10-22T03:50:08;15.80;99.90
2024;DHT22;1016;48.770;9.154;2022-10-22T03:52:36;15.80;99.90
2024;DHT22;1016;48.770;9.154;2022-10-22T03:55:03;15.80;99.90
2024;DHT22;1016;48.770;9.154;2022-10-22T03:57:28;15.80;99.90
2024;DHT22;1016;48.770;9.154;2022-10-22T03:59:54;15.80;99.90
2024;DHT22;1016;48.770;9.154;2022-10-22T04:02:19;15.80;99.90
2024;DHT22;1016;48.770;9.154;2022-10-22T04:04:45;15.80;99.90
2024;DHT22;1016;48.770;9.154;2022-10-22T04:07:11;15.80;99.90
2024;DHT22;1016;48.770;9.154;2022-10-22T04:09:36;15.80;99.90
2024;DHT22;1016;48.770;9.154;2022-10-22T04:12:02;15.80;99.90
2024;DHT22;1016;48.770;9.154;2022-10-22T04:14:29;15.80;99.90
2024;DHT22;1016;48.770;9.154;2022-10-22T04:16:55;15.80;99.90
2024;DHT22;1016;48.770;9.154;2022-10-22T04:19:20;15.80;99.90
2024;DHT22;1016;48.770;9.154;2022-10-22T04:21:46;15.80;99.90
2024;DHT22;1016;48.770;9.154;2022-10-22T04:24:11;15.80;99.90
2024;DHT22;1016;48.770;9.154;2022-10-22T04:26:37;15.80;99.90
2024;DHT22;1016;48.770;9.154;2022-10-22T04:29:02;15.80;99.90
2024;DHT22;1016;48.770;9.154;2022-10-22T04:31:28;15.80;99.90
2024;DHT22;1016;48.770;9.154;2022-10-22T04:33:55;15.80;99.90
2024;DHT22;1016;48.770;9.154;2022-10-22T04:36:22;15.80;99.90
2024;DHT22;1016;48.770;9.154;2022-10-22T04:38:52;15.80;99.90
2024;DHT22;1016;48.770;9.154;2022-10-22T04:41:24;15.70;99.90
2024;DHT22;1016;48.770;9.154;2022-10-22T04:43:50;15.80;99.90
2024;DHT22;1016;48.770;9.154;2022-10-22T04:46:17;15.80;99.90
2024;DHT22;1016;48.770;9.154;2022-10-22T04:48:44;15.80;99.90
2024;DHT22;1016;48.770;9.154;2022-10-22T04:51:11;15.80;99.90
2024;DHT22;1016;48.770;9.154;2022-10-22T04:53:37;15.80;99.90
2024;DHT22;1016;48.770;9.154;2022-10-22T04:58:45;15.80;99.90
2024;DHT22;1016;48.770;9.154;2022-10-22T05:01:17;15.70;99.90
2024;DHT22;1016;48.770;9.154;2022-10-22T05:03:43;15.70;99.90
2024;DHT22;1016;48.770;9.154;2022-10-22T05:06:10;15.80;99.90
2024;DHT22;1016;48.770;9.154;2022-10-22T05:08:35;15.80;99.90
2024;DHT22;1016;48.770;9.154;2022-10-22T05:11:13;15.80;99.90
2024;DHT22;1016;48.770;9.154;2022-10-22T05:13:38;15.80;99.90
2024;DHT22;1016;48.770;9.154;2022-10-22T05:16:04;15.80;99.90
2024;DHT22;1016;48.770;9.154;2022-10-22T05:18:33;15.80;99.90
2024;DHT22;1016;48.770;9.154;2022-10-22T05:20:59;15.80;99.90
2024;DHT22;1016;48.770;9.154;2022-10-22T05:23:24;15.80;99.90
2024;DHT22;1016;48.770;9.154;2022-10-22T05:25:50;15.80;99.90
2024;DHT22;1016;48.770;9.154;2022-10-22T05:28:15;15.80;99.90
2024;DHT22;1016;48.770;9.154;2022-10-22T05:30:41;15.90;99.90
2024;DHT22;1016;48.770;9.154;2022-10-22T05:33:06;15.80;99.90
2024;DHT22;1016;48.770;9.154;2022-10-22T05:35:32;15.80;99.90
2024;DHT22;1016;48.770;9.154;2022-10-22T05:37:57;15.90;99.90
2024;DHT22;1016;48.770;9.154;2022-10-22T05:40:23;15.90;99.90
2024;DHT22;1016;48.770;9.154;2022-10-22T05:42:48;15.90;99.90
2024;DHT22;1016;48.770;9.154;2022-10-22T05:45:14;15.90;99.90
2024;DHT22;1016;48.770;9.154;2022-10-22T05:47:39;15.90;99.90
2024;DHT22;1016;48.770;9.154;2022-10-22T05:50:05;15.90;99.90
2024;DHT22;1016;48.770;9.154;2022-10-22T05:52:31;15.90;99.90
2024;DHT22;1016;48.770;9.154;2022-10-22T05:54:56;15.90;99.90
2024;DHT22;1016;48.770;9.154;2022-10-22T05:57:22;15.90;99.90
2024;DHT22;1016;48.770;9.154;2022-10-22T05:59:47;15.90;99.90
2024;DHT22;1016;48.770;9.154;2022-10-22T06:02:13;15.90;99.90
2024;DHT22;1016;48.770;9.154;2022-10-22T06:04:38;15.90;99.90
2024;DHT22;1016;48.770;9.154;2022-10-22T06:07:04;15.90;99.90
2024;DHT22;1016;48.770;9.154;2022-10-22T06:09:33;16.00;99.90
2024;DHT22;1016;48.770;9.154;2022-10-22T06:12:00;15.90;99.90
2024;DHT22;1016;48.770;9.154;2022-10-22T06:14:26;16.00;99.90
2024;DHT22;1016;48.770;9.154;2022-10-22T06:16:52;16.00;99.90
2024;DHT22;1016;48.770;9.154;2022-10-22T06:19:20;16.00;99.90
2024;DHT22;1016;48.770;9.154;2022-10-22T06:21:46;16.00;99.90
2024;DHT22;1016;48.770;9.154;2022-10-22T06:24:12;16.00;99.90
2024;DHT22;1016;48.770;9.154;2022-10-22T06:26:37;16.00;99.90
2024;DHT22;1016;48.770;9.154;2022-10-22T06:29:03;16.00;99.90
2024;DHT22;1016;48.770;9.154;2022-10-22T06:31:29;16.00;99.90
2024;DHT22;1016;48.770;9.154;2022-10-22T06:34:10;16.00;99.90
2024;DHT22;1016;48.770;9.154;2022-10-22T06:36:36;16.10;99.90
2024;DHT22;1016;48.770;9.154;2022-10-22T06:39:02;16.00;99.90
2024;DHT22;1016;48.770;9.154;2022-10-22T06:41:28;16.10;99.90
2024;DHT22;1016;48.770;9.154;2022-10-22T06:43:53;16.10;99.90
2024;DHT22;1016;48.770;9.154;2022-10-22T06:46:20;16.10;99.90
2024;DHT22;1016;48.770;9.154;2022-10-22T06:48:51;16.10;99.90
2024;DHT22;1016;48.770;9.154;2022-10-22T06:51:16;16.10;99.90
2024;DHT22;1016;48.770;9.154;2022-10-22T06:53:42;16.10;99.90
2024;DHT22;1016;48.770;9.154;2022-10-22T06:56:10;16.10;99.90
2024;DHT22;1016;48.770;9.154;2022-10-22T06:58:36;16.10;99.90
2024;DHT22;1016;48.770;9.154;2022-10-22T07:01:10;16.10;99.90
2024;DHT22;1016;48.770;9.154;2022-10-22T07:03:37;16.20;99.90
2024;DHT22;1016;48.770;9.154;2022-10-22T07:06:05;16.20;99.90
2024;DHT22;1016;48.770;9.154;2022-10-22T07:08:31;16.20;99.90
2024;DHT22;1016;48.770;9.154;2022-10-22T07:11:25;16.30;99.90
2024;DHT22;1016;48.770;9.154;2022-10-22T07:13:50;16.40;99.90
2024;DHT22;1016;48.770;9.154;2022-10-22T07:16:16;16.30;99.90
2024;DHT22;1016;48.770;9.154;2022-10-22T07:18:43;16.30;99.90
2024;DHT22;1016;48.770;9.154;2022-10-22T07:21:10;16.20;99.90
2024;DHT22;1016;48.770;9.154;2022-10-22T07:23:36;16.20;99.90
2024;DHT22;1016;48.770;9.154;2022-10-22T07:26:03;16.30;99.90
2024;DHT22;1016;48.770;9.154;2022-10-22T07:28:29;16.30;99.90
2024;DHT22;1016;48.770;9.154;2022-10-22T07:30:55;16.30;99.90
2024;DHT22;1016;48.770;9.154;2022-10-22T07:33:20;16.30;99.90
2024;DHT22;1016;48.770;9.154;2022-10-22T07:35:46;16.40;99.90
2024;DHT22;1016;48.770;9.154;2022-10-22T07:38:11;16.40;99.90
2024;DHT22;1016;48.770;9.154;2022-10-22T07:40:37;16.40;99.90
2024;DHT22;1016;48.770;9.154;2022-10-22T07:43:03;16.40;99.90
2024;DHT22;1016;48.770;9.154;2022-10-22T07:45:29;16.40;99.90
2024;DHT22;1016;48.770;9.154;2022-10-22T07:47:54;16.40;99.90
2024;DHT22;1016;48.770;9.154;2022-10-22T07:50:20;16.40;99.90
2024;DHT22;1016;48.770;9.154;2022-10-22T07:52:45;16.40;99.90
2024;DHT22;1016;48.770;9.154;2022-10-22T07:55:11;16.40;99.90
2024;DHT22;1016;48.770;9.154;2022-10-22T07:57:38;16.40;99.90
2024;DHT22;1016;48.770;9.154;2022-10-22T08:00:05;16.40;99.90
2024;DHT22;1016;48.770;9.154;2022-10-22T08:02:30;16.50;99.90
2024;DHT22;1016;48.770;9.154;2022-10-22T08:04:56;16.50;99.90
2024;DHT22;1016;48.770;9.154;2022-10-22T08:07:22;16.50;99.90
2024;DHT22;1016;48.770;9.154;2022-10-22T08:09:47;16.60;99.90
2024;DHT22;1016;48.770;9.154;2022-10-22T08:12:13;16.50;99.90
2024;DHT22;1016;48.770;9.154;2022-10-22T08:14:39;16.60;99.90
2024;DHT22;1016;48.770;9.154;2022-10-22T08:17:04;16.70;99.90
2024;DHT22;1016;48.770;9.154;2022-10-22T08:19:30;16.70;99.90
2024;DHT22;1016;48.770;9.154;2022-10-22T08:21:57;16.70;99.90
2024;DHT22;1016;48.770;9.154;2022-10-22T08:24:22;16.90;99.90
2024;DHT22;1016;48.770;9.154;2022-10-22T08:26:48;16.70;99.90
2024;DHT22;1016;48.770;9.154;2022-10-22T08:29:14;16.70;99.90
2024;DHT22;1016;48.770;9.154;2022-10-22T08:31:39;16.70;99.90
2024;DHT22;1016;48.770;9.154;2022-10-22T08:34:05;16.70;99.90
2024;DHT22;1016;48.770;9.154;2022-10-22T08:36:32;16.70;99.90
2024;DHT22;1016;48.770;9.154;2022-10-22T08:38:58;16.70;99.90
2024;DHT22;1016;48.770;9.154;2022-10-22T08:41:24;16.70;99.90
2024;DHT22;1016;48.770;9.154;2022-10-22T08:44:02;16.80;99.90
2024;DHT22;1016;48.770;9.154;2022-10-22T08:46:46;16.70;99.90
2024;DHT22;1016;48.770;9.154;2022-10-22T08:49:23;16.80;99.90
2024;DHT22;1016;48.770;9.154;2022-10-22T08:51:50;16.90;99.90
2024;DHT22;1016;48.770;9.154;2022-10-22T09:00:02;17.00;99.90
2024;DHT22;1016;48.770;9.154;2022-10-22T09:05:26;17.00;99.90
2024;DHT22;1016;48.770;9.154;2022-10-22T09:07:57;17.10;99.90
2024;DHT22;1016;48.770;9.154;2022-10-22T09:10:26;17.20;99.90
2024;DHT22;1016;48.770;9.154;2022-10-22T09:12:53;17.20;99.90
2024;DHT22;1016;48.770;9.154;2022-10-22T09:15:19;17.30;99.90
2024;DHT22;1016;48.770;9.154;2022-10-22T09:25:55;17.50;99.90
2024;DHT22;1016;48.770;9.154;2022-10-22T09:28:21;17.60;99.90
2024;DHT22;1016;48.770;9.154;2022-10-22T09:30:46;17.60;99.90
2024;DHT22;1016;48.770;9.154;2022-10-22T09:33:16;17.70;99.90
2024;DHT22;1016;48.770;9.154;2022-10-22T09:35:47;17.70;99.90
2024;DHT22;1016;48.770;9.154;2022-10-22T09:38:19;17.80;99.90
2024;DHT22;1016;48.770;9.154;2022-10-22T09:40:52;17.90;99.90
2024;DHT22;1016;48.770;9.154;2022-10-22T09:43:19;17.90;99.90
2024;DHT22;1016;48.770;9.154;2022-10-22T09:45:45;18.00;99.90
2024;DHT22;1016;48.770;9.154;2022-10-22T09:48:23;18.10;99.90
2024;DHT22;1016;48.770;9.154;2022-10-22T09:51:05;18.10;99.90
2024;DHT22;1016;48.770;9.154;2022-10-22T09:53:38;18.20;99.90
2024;DHT22;1016;48.770;9.154;2022-10-22T09:56:24;18.20;99.90
2024;DHT22;1016;48.770;9.154;2022-10-22T09:58:50;18.20;99.90
2024;DHT22;1016;48.770;9.154;2022-10-22T10:01:21;18.20;99.90
2024;DHT22;1016;48.770;9.154;2022-10-22T10:03:48;18.30;99.90
2024;DHT22;1016;48.770;9.154;2022-10-22T10:06:21;18.30;99.90
2024;DHT22;1016;48.770;9.154;2022-10-22T10:08:47;18.40;99.90
2024;DHT22;1016;48.770;9.154;2022-10-22T10:11:25;18.50;99.90
2024;DHT22;1016;48.770;9.154;2022-10-22T10:15:00;18.50;99.90
2024;DHT22;1016;48.770;9.154;2022-10-22T10:17:09;18.50;99.90
2024;DHT22;1016;48.770;9.154;2022-10-22T10:33:46;19.00;99.90
2024;DHT22;1016;48.770;9.154;2022-10-22T10:36:25;18.90;99.90
2024;DHT22;1016;48.770;9.154;2022-10-22T10:39:17;18.90;99.90
2024;DHT22;1016;48.770;9.154;2022-10-22T10:41:58;19.00;99.90
2024;DHT22;1016;48.770;9.154;2022-10-22T10:50:36;19.20;99.90
2024;DHT22;1016;48.770;9.154;2022-10-22T10:53:27;19.10;99.90
2024;DHT22;1016;48.770;9.154;2022-10-22T10:56:23;19.30;99.90
2024;DHT22;1016;48.770;9.154;2022-10-22T11:04:56;19.30;99.90
2024;DHT22;1016;48.770;9.154;2022-10-22T11:07:27;19.30;99.90
2024;DHT22;1016;48.770;9.154;2022-10-22T11:10:01;19.30;99.90
2024;DHT22;1016;48.770;9.154;2022-10-22T11:12:34;19.30;99.90
2024;DHT22;1016;48.770;9.154;2022-10-22T11:17:41;19.40;99.90
2024;DHT22;1016;48.770;9.154;2022-10-22T11:20:21;19.50;99.90
2024;DHT22;1016;48.770;9.154;2022-10-22T11:23:08;19.50;99.90
2024;DHT22;1016;48.770;9.154;2022-10-22T11:25:46;19.60;99.90
2024;DHT22;1016;48.770;9.154;2022-10-22T11:31:04;19.60;99.90
2024;DHT22;1016;48.770;9.154;2022-10-22T11:36:09;19.60;99.90
2024;DHT22;1016;48.770;9.154;2022-10-22T11:38:36;19.70;99.90
2024;DHT22;1016;48.770;9.154;2022-10-22T11:41:10;19.70;99.90
2024;DHT22;1016;48.770;9.154;2022-10-22T11:44:20;19.80;99.90
2024;DHT22;1016;48.770;9.154;2022-10-22T11:49:44;19.70;99.90
2024;DHT22;1016;48.770;9.154;2022-10-22T11:52:48;19.70;99.90
2024;DHT22;1016;48.770;9.154;2022-10-22T11:55:44;19.70;99.90
2024;DHT22;1016;48.770;9.154;2022-10-22T12:16:50;20.00;99.90
2024;DHT22;1016;48.770;9.154;2022-10-22T12:19:42;20.20;99.90
2024;DHT22;1016;48.770;9.154;2022-10-22T12:22:16;20.20;99.90
2024;DHT22;1016;48.770;9.154;2022-10-22T12:24:48;20.20;99.90
2024;DHT22;1016;48.770;9.154;2022-10-22T12:27:24;20.20;99.90
2024;DHT22;1016;48.770;9.154;2022-10-22T12:29:57;20.20;99.90
2024;DHT22;1016;48.770;9.154;2022-10-22T12:32:31;20.20;99.90
2024;DHT22;1016;48.770;9.154;2022-10-22T12:35:03;20.10;99.90
2024;DHT22;1016;48.770;9.154;2022-10-22T12:37:29;20.10;99.90
2024;DHT22;1016;48.770;9.154;2022-10-22T12:39:55;20.10;99.90
2024;DHT22;1016;48.770;9.154;2022-10-22T12:42:20;20.10;99.90
2024;DHT22;1016;48.770;9.154;2022-10-22T12:44:54;20.10;99.90
2024;DHT22;1016;48.770;9.154;2022-10-22T12:47:20;20.00;99.90
2024;DHT22;1016;48.770;9.154;2022-10-22T12:49:47;20.00;99.90
2024;DHT22;1016;48.770;9.154;2022-10-22T12:52:19;19.90;99.90
2024;DHT22;1016;48.770;9.154;2022-10-22T12:54:47;20.00;99.90
2024;DHT22;1016;48.770;9.154;2022-10-22T12:57:16;20.00;99.90
2024;DHT22;1016;48.770;9.154;2022-10-22T12:59:45;20.00;99.90
2024;DHT22;1016;48.770;9.154;2022-10-22T13:02:21;20.00;99.90
2024;DHT22;1016;48.770;9.154;2022-10-22T13:08:11;20.00;99.90
2024;DHT22;1016;48.770;9.154;2022-10-22T13:10:39;20.00;99.90
2024;DHT22;1016;48.770;9.154;2022-10-22T13:13:06;20.00;99.90
2024;DHT22;1016;48.770;9.154;2022-10-22T13:18:18;20.20;99.90
2024;DHT22;1016;48.770;9.154;2022-10-22T13:20:56;20.00;99.90
2024;DHT22;1016;48.770;9.154;2022-10-22T13:23:25;20.10;99.90
2024;DHT22;1016;48.770;9.154;2022-10-22T13:28:26;20.00;99.90
2024;DHT22;1016;48.770;9.154;2022-10-22T13:31:10;20.00;99.90
2024;DHT22;1016;48.770;9.154;2022-10-22T13:33:41;19.90;99.90
2024;DHT22;1016;48.770;9.154;2022-10-22T13:36:13;19.90;99.90
2024;DHT22;1016;48.770;9.154;2022-10-22T13:38:40;19.80;99.90
2024;DHT22;1016;48.770;9.154;2022-10-22T13:41:38;19.80;99.90
2024;DHT22;1016;48.770;9.154;2022-10-22T13:44:04;19.80;99.90
2024;DHT22;1016;48.770;9.154;2022-10-22T13:46:30;19.90;99.90
2024;DHT22;1016;48.770;9.154;2022-10-22T13:48:56;19.90;99.90
2024;DHT22;1016;48.770;9.154;2022-10-22T13:51:29;19.80;99.90
2024;DHT22;1016;48.770;9.154;2022-10-22T13:53:55;19.80;99.90
2024;DHT22;1016;48.770;9.154;2022-10-22T13:56:21;19.80;99.90
2024;DHT22;1016;48.770;9.154;2022-10-22T13:58:48;19.80;99.90
2024;DHT22;1016;48.770;9.154;2022-10-22T14:01:22;19.80;99.90
2024;DHT22;1016;48.770;9.154;2022-10-22T14:03:51;19.80;99.90
2024;DHT22;1016;48.770;9.154;2022-10-22T14:06:18;19.90;99.90
2024;DHT22;1016;48.770;9.154;2022-10-22T14:08:46;19.90;99.90
2024;DHT22;1016;48.770;9.154;2022-10-22T14:11:13;19.90;99.90
2024;DHT22;1016;48.770;9.154;2022-10-22T14:13:38;19.90;99.90
2024;DHT22;1016;48.770;9.154;2022-10-22T14:16:06;19.80;99.90
2024;DHT22;1016;48.770;9.154;2022-10-22T14:18:32;19.80;99.90
2024;DHT22;1016;48.770;9.154;2022-10-22T14:21:00;19.70;99.90
2024;DHT22;1016;48.770;9.154;2022-10-22T14:23:30;19.70;99.90
2024;DHT22;1016;48.770;9.154;2022-10-22T14:25:56;19.60;99.90
2024;DHT22;1016;48.770;9.154;2022-10-22T14:28:23;19.50;99.90
2024;DHT22;1016;48.770;9.154;2022-10-22T14:30:49;19.40;99.90
2024;DHT22;1016;48.770;9.154;2022-10-22T14:33:33;19.30;99.90
2024;DHT22;1016;48.770;9.154;2022-10-22T14:35:59;19.20;99.90
2024;DHT22;1016;48.770;9.154;2022-10-22T14:38:25;19.10;99.90
2024;DHT22;1016;48.770;9.154;2022-10-22T14:40:50;19.00;99.90
2024;DHT22;1016;48.770;9.154;2022-10-22T14:43:22;18.90;99.90
2024;DHT22;1016;48.770;9.154;2022-10-22T14:45:48;18.90;99.90
2024;DHT22;1016;48.770;9.154;2022-10-22T14:48:13;18.80;99.90
2024;DHT22;1016;48.770;9.154;2022-10-22T14:50:41;18.70;99.90
2024;DHT22;1016;48.770;9.154;2022-10-22T14:53:07;18.60;99.90
2024;DHT22;1016;48.770;9.154;2022-10-22T14:55:32;18.50;99.90
2024;DHT22;1016;48.770;9.154;2022-10-22T14:57:58;18.40;99.90
2024;DHT22;1016;48.770;9.154;2022-10-22T15:00:23;18.40;99.90
2024;DHT22;1016;48.770;9.154;2022-10-22T15:02:49;18.40;99.90
2024;DHT22;1016;48.770;9.154;2022-10-22T15:05:15;18.40;99.90
2024;DHT22;1016;48.770;9.154;2022-10-22T15:07:42;18.30;99.90
2024;DHT22;1016;48.770;9.154;2022-10-22T15:10:08;18.30;99.90
2024;DHT22;1016;48.770;9.154;2022-10-22T15:12:34;18.20;99.90
2024;DHT22;1016;48.770;9.154;2022-10-22T15:15:00;18.20;99.90
2024;DHT22;1016;48.770;9.154;2022-10-22T15:17:25;18.10;99.90
2024;DHT22;1016;48.770;9.154;2022-10-22T15:19:51;18.10;99.90
2024;DHT22;1016;48.770;9.154;2022-10-22T15:22:17;18.00;99.90
2024;DHT22;1016;48.770;9.154;2022-10-22T15:24:43;18.00;99.90
2024;DHT22;1016;48.770;9.154;2022-10-22T15:27:10;18.00;99.90
2024;DHT22;1016;48.770;9.154;2022-10-22T15:29:38;17.90;99.90
2024;DHT22;1016;48.770;9.154;2022-10-22T15:32:04;17.80;99.90
2024;DHT22;1016;48.770;9.154;2022-10-22T15:34:33;17.70;99.90
2024;DHT22;1016;48.770;9.154;2022-10-22T15:37:01;17.70;99.90
2024;DHT22;1016;48.770;9.154;2022-10-22T15:39:27;17.60;99.90
2024;DHT22;1016;48.770;9.154;2022-10-22T15:41:53;17.60;99.90
2024;DHT22;1016;48.770;9.154;2022-10-22T15:44:22;17.50;99.90
2024;DHT22;1016;48.770;9.154;2022-10-22T15:46:48;17.50;99.90
2024;DHT22;1016;48.770;9.154;2022-10-22T15:49:15;17.50;99.90
2024;DHT22;1016;48.770;9.154;2022-10-22T15:51:40;17.50;99.90
2024;DHT22;1016;48.770;9.154;2022-10-22T15:54:09;17.40;99.90
2024;DHT22;1016;48.770;9.154;2022-10-22T15:56:36;17.30;99.90
2024;DHT22;1016;48.770;9.154;2022-10-22T15:59:02;17.30;99.90
2024;DHT22;1016;48.770;9.154;2022-10-22T16:01:32;17.20;99.90
2024;DHT22;1016;48.770;9.154;2022-10-22T16:03:58;17.20;99.90
2024;DHT22;1016;48.770;9.154;2022-10-22T16:06:26;17.10;99.90
2024;DHT22;1016;48.770;9.154;2022-10-22T16:08:52;17.10;99.90
2024;DHT22;1016;48.770;9.154;2022-10-22T16:11:19;17.10;99.90
2024;DHT22;1016;48.770;9.154;2022-10-22T16:13:44;17.00;99.90
2024;DHT22;1016;48.770;9.154;2022-10-22T16:16:10;16.90;99.90
2024;DHT22;1016;48.770;9.154;2022-10-22T16:18:35;16.90;99.90
2024;DHT22;1016;48.770;9.154;2022-10-22T16:21:01;16.80;99.90
2024;DHT22;1016;48.770;9.154;2022-10-22T16:23:26;16.80;99.90
2024;DHT22;1016;48.770;9.154;2022-10-22T16:25:52;16.80;99.90
2024;DHT22;1016;48.770;9.154;2022-10-22T16:28:17;16.90;99.90
2024;DHT22;1016;48.770;9.154;2022-10-22T16:30:43;16.90;99.90
2024;DHT22;1016;48.770;9.154;2022-10-22T16:33:09;16.90;99.90
2024;DHT22;1016;48.770;9.154;2022-10-22T16:35:42;16.90;99.90
2024;DHT22;1016;48.770;9.154;2022-10-22T16:38:08;16.80;99.90
2024;DHT22;1016;48.770;9.154;2022-10-22T16:40:35;16.80;99.90
2024;DHT22;1016;48.770;9.154;2022-10-22T16:43:00;16.80;99.90
2024;DHT22;1016;48.770;9.154;2022-10-22T16:45:26;16.70;99.90
2024;DHT22;1016;48.770;9.154;2022-10-22T16:47:51;16.60;99.90
2024;DHT22;1016;48.770;9.154;2022-10-22T16:50:17;16.50;99.90
2024;DHT22;1016;48.770;9.154;2022-10-22T16:52:42;16.40;99.90
2024;DHT22;1016;48.770;9.154;2022-10-22T16:55:08;16.40;99.90
2024;DHT22;1016;48.770;9.154;2022-10-22T16:57:33;16.30;99.90
2024;DHT22;1016;48.770;9.154;2022-10-22T17:00:00;16.30;99.90
2024;DHT22;1016;48.770;9.154;2022-10-22T17:02:25;16.30;99.90
2024;DHT22;1016;48.770;9.154;2022-10-22T17:04:51;16.20;99.90
2024;DHT22;1016;48.770;9.154;2022-10-22T17:07:16;16.20;99.90
2024;DHT22;1016;48.770;9.154;2022-10-22T17:09:42;16.10;99.90
2024;DHT22;1016;48.770;9.154;2022-10-22T17:12:07;16.10;99.90
2024;DHT22;1016;48.770;9.154;2022-10-22T17:14:33;16.10;99.90
2024;DHT22;1016;48.770;9.154;2022-10-22T17:16:58;16.10;99.90
2024;DHT22;1016;48.770;9.154;2022-10-22T17:19:24;16.10;99.90
2024;DHT22;1016;48.770;9.154;2022-10-22T17:21:51;16.10;99.90
2024;DHT22;1016;48.770;9.154;2022-10-22T17:24:18;16.10;99.90
2024;DHT22;1016;48.770;9.154;2022-10-22T17:26:44;16.10;99.90
2024;DHT22;1016;48.770;9.154;2022-10-22T17:29:10;16.00;99.90
2024;DHT22;1016;48.770;9.154;2022-10-22T17:31:37;16.10;99.90
2024;DHT22;1016;48.770;9.154;2022-10-22T17:34:05;16.10;99.90
2024;DHT22;1016;48.770;9.154;2022-10-22T17:36:31;16.10;99.90
2024;DHT22;1016;48.770;9.154;2022-10-22T17:38:58;16.10;99.90
2024;DHT22;1016;48.770;9.154;2022-10-22T17:41:29;16.10;99.90
2024;DHT22;1016;48.770;9.154;2022-10-22T17:43:56;16.10;99.90
2024;DHT22;1016;48.770;9.154;2022-10-22T17:46:24;16.10;99.90
2024;DHT22;1016;48.770;9.154;2022-10-22T17:48:55;16.10;99.90
2024;DHT22;1016;48.770;9.154;2022-10-22T17:51:21;16.10;99.90
2024;DHT22;1016;48.770;9.154;2022-10-22T17:53:48;16.10;99.90